KLEX Airport Diagram

We have created a template for each of the higher traffic airports in the vZID airspace. They include KCMH, KCRW, KCVG, KDAY, KIND, KLEX and KSDF. You wil find usefull information including the airport diagram, weather, and specific airport procedures.

KLEX Weather

[Source: ADDS]
METAR
KLEX 300154Z 06011KT 10SM CLR 13/08 A3002 RMK AO2 SLP165 T01280083 =
TAF
KLEX 292326Z 3000/3024 11010KT P6SM SKC FM301100 14011KT P6SM BKN060 FM301400 17014G22KT P6SM BKN190 =
JSN Epic template designed by JoomlaShine.com